sensor_id;sensor_type;location;lat;lon;timestamp;pressure;altitude;pressure_sealevel;temperature;humidity
39715;BME280;54166;53.172;-6.552;2023-01-01T00:02:26;97106.12;;;16.90;37.00
39715;BME280;54166;53.172;-6.552;2023-01-01T00:04:53;97108.72;;;16.84;36.92
39715;BME280;54166;53.172;-6.552;2023-01-01T00:07:20;97112.35;;;16.47;36.96
39715;BME280;54166;53.172;-6.552;2023-01-01T00:09:47;97118.60;;;16.78;36.81
39715;BME280;54166;53.172;-6.552;2023-01-01T00:12:14;97124.53;;;16.75;36.77
39715;BME280;54166;53.172;-6.552;2023-01-01T00:14:41;97130.44;;;16.73;36.49
39715;BME280;54166;53.172;-6.552;2023-01-01T00:17:09;97138.28;;;16.71;36.46
39715;BME280;54166;53.172;-6.552;2023-01-01T00:19:36;97140.99;;;16.69;36.54
39715;BME280;54166;53.172;-6.552;2023-01-01T00:22:03;97135.54;;;16.67;36.47
39715;BME280;54166;53.172;-6.552;2023-01-01T00:24:31;97130.42;;;17.06;36.53
39715;BME280;54166;53.172;-6.552;2023-01-01T00:26:58;97129.92;;;17.37;36.52
39715;BME280;54166;53.172;-6.552;2023-01-01T00:29:25;97135.45;;;16.62;36.41
39715;BME280;54166;53.172;-6.552;2023-01-01T00:31:52;97132.54;;;16.60;36.39
39715;BME280;54166;53.172;-6.552;2023-01-01T00:34:19;97128.48;;;16.58;36.36
39715;BME280;54166;53.172;-6.552;2023-01-01T00:36:46;97117.35;;;16.57;36.31
39715;BME280;54166;53.172;-6.552;2023-01-01T00:39:13;97120.51;;;16.95;36.16
39715;BME280;54166;53.172;-6.552;2023-01-01T00:41:40;97123.30;;;16.53;36.14
39715;BME280;54166;53.172;-6.552;2023-01-01T00:44:07;97118.74;;;16.51;36.17
39715;BME280;54166;53.172;-6.552;2023-01-01T00:46:35;97120.88;;;16.90;36.18
39715;BME280;54166;53.172;-6.552;2023-01-01T00:49:02;97117.31;;;16.48;36.21
39715;BME280;54166;53.172;-6.552;2023-01-01T00:51:29;97117.80;;;16.47;36.15
39715;BME280;54166;53.172;-6.552;2023-01-01T00:53:56;97123.07;;;16.45;36.09
39715;BME280;54166;53.172;-6.552;2023-01-01T00:56:23;97118.25;;;17.18;36.08
39715;BME280;54166;53.172;-6.552;2023-01-01T00:58:50;97113.45;;;16.43;36.07
39715;BME280;54166;53.172;-6.552;2023-01-01T01:01:17;97112.56;;;16.41;36.04
39715;BME280;54166;53.172;-6.552;2023-01-01T01:03:45;97115.81;;;16.79;36.04
39715;BME280;54166;53.172;-6.552;2023-01-01T01:06:14;97120.95;;;16.36;35.99
39715;BME280;54166;53.172;-6.552;2023-01-01T01:08:45;97120.44;;;16.74;35.99
39715;BME280;54166;53.172;-6.552;2023-01-01T01:11:14;97120.97;;;17.06;35.93
39715;BME280;54166;53.172;-6.552;2023-01-01T01:13:44;97119.68;;;16.71;35.91
39715;BME280;54166;53.172;-6.552;2023-01-01T01:16:14;97113.51;;;16.70;35.88
39715;BME280;54166;53.172;-6.552;2023-01-01T01:18:44;97114.24;;;16.28;35.78
39715;BME280;54166;53.172;-6.552;2023-01-01T01:21:15;97118.53;;;16.27;35.69
39715;BME280;54166;53.172;-6.552;2023-01-01T01:23:42;97125.80;;;16.24;35.66
39715;BME280;54166;53.172;-6.552;2023-01-01T01:26:11;97127.24;;;16.62;35.64
39715;BME280;54166;53.172;-6.552;2023-01-01T01:28:39;97131.18;;;16.20;35.58
39715;BME280;54166;53.172;-6.552;2023-01-01T01:31:08;97125.25;;;16.57;35.52
39715;BME280;54166;53.172;-6.552;2023-01-01T01:33:36;97132.33;;;16.89;35.45
39715;BME280;54166;53.172;-6.552;2023-01-01T01:36:04;97136.23;;;16.54;35.41
39715;BME280;54166;53.172;-6.552;2023-01-01T01:38:32;97137.39;;;16.84;35.38
39715;BME280;54166;53.172;-6.552;2023-01-01T01:40:59;97144.89;;;16.49;35.38
39715;BME280;54166;53.172;-6.552;2023-01-01T01:43:50;97144.54;;;16.47;35.32
39715;BME280;54166;53.172;-6.552;2023-01-01T01:46:21;97149.10;;;16.40;35.33
39715;BME280;54166;53.172;-6.552;2023-01-01T01:48:52;97153.77;;;16.39;35.31
39715;BME280;54166;53.172;-6.552;2023-01-01T01:51:26;97152.62;;;16.72;35.24
39715;BME280;54166;53.172;-6.552;2023-01-01T01:53:58;97154.89;;;16.36;35.21
39715;BME280;54166;53.172;-6.552;2023-01-01T01:56:31;97159.19;;;16.69;35.19
39715;BME280;54166;53.172;-6.552;2023-01-01T01:59:00;97159.03;;;16.32;35.12
39715;BME280;54166;53.172;-6.552;2023-01-01T02:01:28;97163.19;;;16.31;35.04
39715;BME280;54166;53.172;-6.552;2023-01-01T02:03:58;97160.86;;;16.62;35.08
39715;BME280;54166;53.172;-6.552;2023-01-01T02:06:27;97160.67;;;16.26;35.10
39715;BME280;54166;53.172;-6.552;2023-01-01T02:08:56;97165.50;;;16.57;35.10
39715;BME280;54166;53.172;-6.552;2023-01-01T02:11:25;97167.17;;;16.23;35.02
39715;BME280;54166;53.172;-6.552;2023-01-01T02:13:53;97170.50;;;16.21;35.08
39715;BME280;54166;53.172;-6.552;2023-01-01T02:16:26;97169.75;;;16.20;34.92
39715;BME280;54166;53.172;-6.552;2023-01-01T02:21:08;97172.34;;;17.52;35.29
39715;BME280;54166;53.172;-6.552;2023-01-01T02:23:43;97173.58;;;16.27;35.09
39715;BME280;54166;53.172;-6.552;2023-01-01T02:26:41;97173.08;;;16.34;35.22
39715;BME280;54166;53.172;-6.552;2023-01-01T02:29:19;97176.41;;;16.31;35.08
39715;BME280;54166;53.172;-6.552;2023-01-01T02:31:52;97181.86;;;16.33;35.11
39715;BME280;54166;53.172;-6.552;2023-01-01T02:34:27;97187.83;;;16.33;35.03
39715;BME280;54166;53.172;-6.552;2023-01-01T02:36:57;97192.57;;;16.00;35.04
39715;BME280;54166;53.172;-6.552;2023-01-01T02:39:30;97192.31;;;16.32;34.86
39715;BME280;54166;53.172;-6.552;2023-01-01T02:41:58;97193.20;;;16.31;34.83
39715;BME280;54166;53.172;-6.552;2023-01-01T02:44:28;97186.37;;;16.30;34.66
39715;BME280;54166;53.172;-6.552;2023-01-01T02:46:56;97191.03;;;16.28;34.77
39715;BME280;54166;53.172;-6.552;2023-01-01T02:49:31;97196.54;;;16.32;34.75
39715;BME280;54166;53.172;-6.552;2023-01-01T02:52:04;97196.20;;;15.95;34.63
39715;BME280;54166;53.172;-6.552;2023-01-01T02:54:39;97199.35;;;16.24;34.46
39715;BME280;54166;53.172;-6.552;2023-01-01T02:57:12;97194.78;;;16.21;34.57
39715;BME280;54166;53.172;-6.552;2023-01-01T02:59:51;97196.49;;;16.18;34.61
39715;BME280;54166;53.172;-6.552;2023-01-01T03:02:25;97196.46;;;15.82;34.63
39715;BME280;54166;53.172;-6.552;2023-01-01T03:05:03;97201.18;;;16.14;34.67
39715;BME280;54166;53.172;-6.552;2023-01-01T03:07:37;97200.34;;;16.12;34.62
39715;BME280;54166;53.172;-6.552;2023-01-01T03:10:10;97198.87;;;16.10;34.61
39715;BME280;54166;53.172;-6.552;2023-01-01T03:12:44;97200.39;;;16.09;34.63
39715;BME280;54166;53.172;-6.552;2023-01-01T03:15:23;97205.23;;;16.42;34.59
39715;BME280;54166;53.172;-6.552;2023-01-01T03:17:56;97207.03;;;16.39;34.60
39715;BME280;54166;53.172;-6.552;2023-01-01T03:20:28;97207.27;;;16.05;34.67
39715;BME280;54166;53.172;-6.552;2023-01-01T03:23:01;97210.53;;;15.70;34.67
39715;BME280;54166;53.172;-6.552;2023-01-01T03:25:32;97213.90;;;16.02;34.61
39715;BME280;54166;53.172;-6.552;2023-01-01T03:28:05;97214.72;;;15.67;34.56
39715;BME280;54166;53.172;-6.552;2023-01-01T03:30:34;97218.06;;;16.33;34.70
39715;BME280;54166;53.172;-6.552;2023-01-01T03:33:05;97214.96;;;15.98;34.57
39715;BME280;54166;53.172;-6.552;2023-01-01T03:35:39;97216.99;;;16.29;34.63
39715;BME280;54166;53.172;-6.552;2023-01-01T03:38:11;97214.17;;;15.94;34.57
39715;BME280;54166;53.172;-6.552;2023-01-01T03:40:40;97214.43;;;16.26;34.48
39715;BME280;54166;53.172;-6.552;2023-01-01T03:43:14;97222.08;;;16.25;34.45
39715;BME280;54166;53.172;-6.552;2023-01-01T03:45:44;97219.95;;;15.89;34.49
39715;BME280;54166;53.172;-6.552;2023-01-01T03:48:12;97219.50;;;15.87;34.48
39715;BME280;54166;53.172;-6.552;2023-01-01T03:50:48;97226.21;;;15.86;34.48
39715;BME280;54166;53.172;-6.552;2023-01-01T03:53:28;97225.63;;;16.16;34.45
39715;BME280;54166;53.172;-6.552;2023-01-01T03:56:08;97222.75;;;15.79;34.58
39715;BME280;54166;53.172;-6.552;2023-01-01T03:58:41;97217.87;;;15.77;34.48
39715;BME280;54166;53.172;-6.552;2023-01-01T04:01:17;97217.17;;;16.09;34.48
39715;BME280;54166;53.172;-6.552;2023-01-01T04:03:47;97218.35;;;15.75;34.53
39715;BME280;54166;53.172;-6.552;2023-01-01T04:06:15;97219.89;;;15.75;34.47
39715;BME280;54166;53.172;-6.552;2023-01-01T04:08:43;97222.71;;;15.75;34.45
39715;BME280;54166;53.172;-6.552;2023-01-01T04:11:15;97223.20;;;15.73;34.44
39715;BME280;54166;53.172;-6.552;2023-01-01T04:13:47;97225.68;;;15.70;34.44
39715;BME280;54166;53.172;-6.552;2023-01-01T04:16:14;97229.58;;;15.68;34.44
39715;BME280;54166;53.172;-6.552;2023-01-01T04:18:41;97230.59;;;15.68;34.44
39715;BME280;54166;53.172;-6.552;2023-01-01T04:21:08;97232.86;;;16.01;34.47
39715;BME280;54166;53.172;-6.552;2023-01-01T04:23:35;97234.09;;;15.99;34.51
39715;BME280;54166;53.172;-6.552;2023-01-01T04:26:02;97233.68;;;15.65;34.45
39715;BME280;54166;53.172;-6.552;2023-01-01T04:28:29;97231.14;;;15.64;34.40
39715;BME280;54166;53.172;-6.552;2023-01-01T04:30:56;97232.95;;;15.62;34.44
39715;BME280;54166;53.172;-6.552;2023-01-01T04:33:27;97237.18;;;16.34;34.44
39715;BME280;54166;53.172;-6.552;2023-01-01T04:35:54;97240.69;;;15.58;34.47
39715;BME280;54166;53.172;-6.552;2023-01-01T04:38:21;97243.87;;;15.91;34.40
39715;BME280;54166;53.172;-6.552;2023-01-01T04:40:57;97243.24;;;15.57;34.46
39715;BME280;54166;53.172;-6.552;2023-01-01T04:43:24;97245.16;;;15.87;34.42
39715;BME280;54166;53.172;-6.552;2023-01-01T04:45:55;97246.59;;;15.86;34.39
39715;BME280;54166;53.172;-6.552;2023-01-01T04:48:23;97247.11;;;15.50;34.34
39715;BME280;54166;53.172;-6.552;2023-01-01T04:50:55;97247.20;;;15.83;34.40
39715;BME280;54166;53.172;-6.552;2023-01-01T04:53:23;97244.91;;;15.48;34.39
39715;BME280;54166;53.172;-6.552;2023-01-01T04:55:50;97249.86;;;15.80;34.37
39715;BME280;54166;53.172;-6.552;2023-01-01T04:58:17;97251.10;;;15.47;34.38
39715;BME280;54166;53.172;-6.552;2023-01-01T05:00:48;97252.16;;;15.78;34.43
39715;BME280;54166;53.172;-6.552;2023-01-01T05:03:15;97254.50;;;15.76;34.44
39715;BME280;54166;53.172;-6.552;2023-01-01T05:05:43;97259.53;;;15.76;34.44
39715;BME280;54166;53.172;-6.552;2023-01-01T05:08:10;97265.91;;;15.41;34.47
39715;BME280;54166;53.172;-6.552;2023-01-01T05:10:37;97271.25;;;15.40;34.49
39715;BME280;54166;53.172;-6.552;2023-01-01T05:13:06;97274.99;;;15.71;34.51
39715;BME280;54166;53.172;-6.552;2023-01-01T05:15:35;97276.43;;;15.37;34.53
39715;BME280;54166;53.172;-6.552;2023-01-01T05:18:03;97282.03;;;15.36;34.55
39715;BME280;54166;53.172;-6.552;2023-01-01T05:20:31;97278.08;;;16.08;34.51
39715;BME280;54166;53.172;-6.552;2023-01-01T05:22:58;97276.82;;;15.33;34.56
39715;BME280;54166;53.172;-6.552;2023-01-01T05:25:25;97277.75;;;15.66;34.51
39715;BME280;54166;53.172;-6.552;2023-01-01T05:27:52;97278.86;;;15.66;34.46
39715;BME280;54166;53.172;-6.552;2023-01-01T05:30:19;97273.96;;;15.65;34.44
39715;BME280;54166;53.172;-6.552;2023-01-01T05:32:46;97272.32;;;15.63;34.46
39715;BME280;54166;53.172;-6.552;2023-01-01T05:35:13;97272.62;;;15.62;34.45
39715;BME280;54166;53.172;-6.552;2023-01-01T05:37:40;97271.53;;;15.27;34.47
39715;BME280;54166;53.172;-6.552;2023-01-01T05:40:08;97272.30;;;15.59;34.49
39715;BME280;54166;53.172;-6.552;2023-01-01T05:42:36;97279.42;;;15.26;34.45
39715;BME280;54166;53.172;-6.552;2023-01-01T05:45:04;97280.31;;;15.58;34.50
39715;BME280;54166;53.172;-6.552;2023-01-01T05:47:32;97276.72;;;15.23;34.55
39715;BME280;54166;53.172;-6.552;2023-01-01T05:49:59;97278.94;;;15.95;34.50
39715;BME280;54166;53.172;-6.552;2023-01-01T05:52:26;97280.87;;;15.53;34.51
39715;BME280;54166;53.172;-6.552;2023-01-01T05:54:53;97277.51;;;15.51;34.49
39715;BME280;54166;53.172;-6.552;2023-01-01T05:57:20;97282.87;;;15.50;34.47
39715;BME280;54166;53.172;-6.552;2023-01-01T05:59:47;97287.45;;;15.15;34.44
39715;BME280;54166;53.172;-6.552;2023-01-01T06:02:13;97287.34;;;15.47;34.44
39715;BME280;54166;53.172;-6.552;2023-01-01T06:04:40;97293.38;;;15.45;34.44
39715;BME280;54166;53.172;-6.552;2023-01-01T06:07:07;97298.50;;;15.44;34.46
39715;BME280;54166;53.172;-6.552;2023-01-01T06:09:34;97298.93;;;15.44;34.46
39715;BME280;54166;53.172;-6.552;2023-01-01T06:12:02;97294.11;;;15.42;34.45
39715;BME280;54166;53.172;-6.552;2023-01-01T06:14:29;97297.72;;;15.41;34.44
39715;BME280;54166;53.172;-6.552;2023-01-01T06:16:56;97297.29;;;15.40;34.45
39715;BME280;54166;53.172;-6.552;2023-01-01T06:19:23;97298.14;;;15.40;34.45
39715;BME280;54166;53.172;-6.552;2023-01-01T06:21:50;97293.69;;;15.05;34.44
39715;BME280;54166;53.172;-6.552;2023-01-01T06:24:18;97295.31;;;15.78;34.41
39715;BME280;54166;53.172;-6.552;2023-01-01T06:26:45;97298.06;;;15.39;34.43
39715;BME280;54166;53.172;-6.552;2023-01-01T06:32:21;97300.12;;;15.36;34.16
39715;BME280;54166;53.172;-6.552;2023-01-01T06:34:48;97301.30;;;15.26;34.27
39715;BME280;54166;53.172;-6.552;2023-01-01T06:37:15;97306.96;;;14.91;34.28
39715;BME280;54166;53.172;-6.552;2023-01-01T06:39:42;97302.22;;;15.57;34.21
39715;BME280;54166;53.172;-6.552;2023-01-01T06:42:09;97301.46;;;15.50;34.31
39715;BME280;54166;53.172;-6.552;2023-01-01T06:44:36;97305.04;;;15.10;34.38
39715;BME280;54166;53.172;-6.552;2023-01-01T06:47:03;97310.40;;;15.12;34.31
39715;BME280;54166;53.172;-6.552;2023-01-01T06:49:30;97310.15;;;15.40;34.44
39715;BME280;54166;53.172;-6.552;2023-01-01T06:51:57;97308.60;;;15.02;34.42
39715;BME280;54166;53.172;-6.552;2023-01-01T06:54:24;97309.01;;;15.73;34.38
39715;BME280;54166;53.172;-6.552;2023-01-01T06:56:51;97312.91;;;15.30;34.42
39715;BME280;54166;53.172;-6.552;2023-01-01T06:59:18;97311.48;;;15.28;34.41
39715;BME280;54166;53.172;-6.552;2023-01-01T07:01:45;97310.78;;;15.27;34.47
39715;BME280;54166;53.172;-6.552;2023-01-01T07:04:14;97314.08;;;15.66;34.47
39715;BME280;54166;53.172;-6.552;2023-01-01T07:06:42;97316.59;;;15.63;34.48
39715;BME280;54166;53.172;-6.552;2023-01-01T07:09:09;97320.73;;;15.23;34.54
39715;BME280;54166;53.172;-6.552;2023-01-01T07:11:36;97315.37;;;15.22;34.51
39715;BME280;54166;53.172;-6.552;2023-01-01T07:14:03;97315.38;;;15.22;34.45
39715;BME280;54166;53.172;-6.552;2023-01-01T07:16:30;97317.02;;;15.61;34.51
39715;BME280;54166;53.172;-6.552;2023-01-01T07:18:58;97317.43;;;15.20;34.47
39715;BME280;54166;53.172;-6.552;2023-01-01T07:21:29;97318.76;;;15.19;34.48
39715;BME280;54166;53.172;-6.552;2023-01-01T07:23:58;97318.24;;;15.57;34.50
39715;BME280;54166;53.172;-6.552;2023-01-01T07:26:27;97317.91;;;14.82;34.51
39715;BME280;54166;53.172;-6.552;2023-01-01T07:28:55;97324.00;;;15.15;34.56
39715;BME280;54166;53.172;-6.552;2023-01-01T07:31:22;97326.56;;;15.14;34.55
39715;BME280;54166;53.172;-6.552;2023-01-01T07:33:49;97330.82;;;15.54;34.59
39715;BME280;54166;53.172;-6.552;2023-01-01T07:36:16;97328.88;;;15.13;34.60
39715;BME280;54166;53.172;-6.552;2023-01-01T07:38:43;97333.55;;;15.52;34.61
39715;BME280;54166;53.172;-6.552;2023-01-01T07:41:10;97334.49;;;15.11;34.65
39715;BME280;54166;53.172;-6.552;2023-01-01T07:43:37;97340.83;;;15.50;34.69
39715;BME280;54166;53.172;-6.552;2023-01-01T07:46:04;97345.91;;;15.49;34.64
39715;BME280;54166;53.172;-6.552;2023-01-01T07:48:31;97344.75;;;15.08;34.69
39715;BME280;54166;53.172;-6.552;2023-01-01T07:50:58;97340.56;;;15.07;34.67
39715;BME280;54166;53.172;-6.552;2023-01-01T07:53:25;97340.43;;;15.10;34.62
39715;BME280;54166;53.172;-6.552;2023-01-01T07:55:52;97340.94;;;15.10;34.64
39715;BME280;54166;53.172;-6.552;2023-01-01T07:58:19;97338.40;;;15.47;34.64
39715;BME280;54166;53.172;-6.552;2023-01-01T08:00:47;97341.49;;;15.45;34.63
39715;BME280;54166;53.172;-6.552;2023-01-01T08:03:15;97337.54;;;15.43;34.65
39715;BME280;54166;53.172;-6.552;2023-01-01T08:05:42;97335.25;;;15.42;34.69
39715;BME280;54166;53.172;-6.552;2023-01-01T08:08:10;97334.37;;;15.01;34.71
39715;BME280;54166;53.172;-6.552;2023-01-01T08:10:37;97331.19;;;15.39;34.73
39715;BME280;54166;53.172;-6.552;2023-01-01T08:13:06;97330.14;;;14.98;34.71
39715;BME280;54166;53.172;-6.552;2023-01-01T08:15:34;97327.87;;;15.36;34.75
39715;BME280;54166;53.172;-6.552;2023-01-01T08:18:08;97328.38;;;15.35;34.75
39715;BME280;54166;53.172;-6.552;2023-01-01T08:20:35;97331.20;;;15.34;34.65
39715;BME280;54166;53.172;-6.552;2023-01-01T08:23:02;97332.63;;;15.34;34.65
39715;BME280;54166;53.172;-6.552;2023-01-01T08:25:29;97339.50;;;14.92;34.72
39715;BME280;54166;53.172;-6.552;2023-01-01T08:27:56;97357.42;;;15.33;34.72
39715;BME280;54166;53.172;-6.552;2023-01-01T08:30:23;97364.63;;;14.59;34.79
39715;BME280;54166;53.172;-6.552;2023-01-01T08:32:50;97368.39;;;14.92;34.82
39715;BME280;54166;53.172;-6.552;2023-01-01T08:35:18;97376.29;;;15.31;34.75
39715;BME280;54166;53.172;-6.552;2023-01-01T08:37:45;97378.21;;;15.28;34.75
39715;BME280;54166;53.172;-6.552;2023-01-01T08:40:13;97382.84;;;15.27;34.72
39715;BME280;54166;53.172;-6.552;2023-01-01T08:42:40;97386.29;;;14.86;34.73
39715;BME280;54166;53.172;-6.552;2023-01-01T08:45:08;97388.98;;;15.25;34.75
39715;BME280;54166;53.172;-6.552;2023-01-01T08:47:36;97396.73;;;14.84;34.75
39715;BME280;54166;53.172;-6.552;2023-01-01T08:50:04;97398.07;;;14.83;34.74
39715;BME280;54166;53.172;-6.552;2023-01-01T08:52:31;97399.55;;;14.82;34.73
39715;BME280;54166;53.172;-6.552;2023-01-01T08:54:58;97398.40;;;14.81;34.73
39715;BME280;54166;53.172;-6.552;2023-01-01T08:57:29;97404.80;;;14.81;34.68
39715;BME280;54166;53.172;-6.552;2023-01-01T09:00:02;97410.50;;;15.20;34.73
39715;BME280;54166;53.172;-6.552;2023-01-01T09:02:30;97416.85;;;15.17;34.77
39715;BME280;54166;53.172;-6.552;2023-01-01T09:04:58;97421.65;;;14.78;34.79
39715;BME280;54166;53.172;-6.552;2023-01-01T09:07:25;97422.17;;;15.17;34.79
39715;BME280;54166;53.172;-6.552;2023-01-01T09:09:52;97423.70;;;14.77;34.76
39715;BME280;54166;53.172;-6.552;2023-01-01T09:12:19;97424.53;;;14.79;34.73
39715;BME280;54166;53.172;-6.552;2023-01-01T09:14:46;97428.23;;;15.17;34.75
39715;BME280;54166;53.172;-6.552;2023-01-01T09:17:14;97427.24;;;14.76;34.76
39715;BME280;54166;53.172;-6.552;2023-01-01T09:19:41;97431.98;;;15.15;34.70
39715;BME280;54166;53.172;-6.552;2023-01-01T09:22:08;97433.50;;;15.14;34.77
39715;BME280;54166;53.172;-6.552;2023-01-01T09:24:36;97438.28;;;14.72;34.76
39715;BME280;54166;53.172;-6.552;2023-01-01T09:27:04;97443.85;;;14.71;34.71
39715;BME280;54166;53.172;-6.552;2023-01-01T09:29:31;97450.27;;;14.70;34.67
39715;BME280;54166;53.172;-6.552;2023-01-01T09:31:58;97457.86;;;15.09;34.70
39715;BME280;54166;53.172;-6.552;2023-01-01T09:34:25;97463.55;;;14.68;34.69
39715;BME280;54166;53.172;-6.552;2023-01-01T09:36:52;97471.19;;;14.68;34.70
39715;BME280;54166;53.172;-6.552;2023-01-01T09:39:19;97480.44;;;14.66;34.64
39715;BME280;54166;53.172;-6.552;2023-01-01T09:41:57;97488.26;;;15.06;34.63
39715;BME280;54166;53.172;-6.552;2023-01-01T09:45:13;97496.29;;;14.62;34.61
39715;BME280;54166;53.172;-6.552;2023-01-01T09:47:45;97501.46;;;14.52;34.76
39715;BME280;54166;53.172;-6.552;2023-01-01T09:50:15;97497.68;;;14.55;34.69
39715;BME280;54166;53.172;-6.552;2023-01-01T09:52:49;97491.85;;;14.56;34.61
39715;BME280;54166;53.172;-6.552;2023-01-01T09:55:25;97500.61;;;14.95;34.50
39715;BME280;54166;53.172;-6.552;2023-01-01T09:57:55;97504.03;;;14.95;34.45
39715;BME280;54166;53.172;-6.552;2023-01-01T10:00:23;97505.47;;;14.95;34.41
39715;BME280;54166;53.172;-6.552;2023-01-01T10:03:02;97515.73;;;14.96;34.51
39715;BME280;54166;53.172;-6.552;2023-01-01T10:05:41;97520.71;;;14.92;34.23
39715;BME280;54166;53.172;-6.552;2023-01-01T10:08:20;97518.28;;;14.51;34.51
39715;BME280;54166;53.172;-6.552;2023-01-01T10:10:58;97522.65;;;14.89;34.29
39715;BME280;54166;53.172;-6.552;2023-01-01T10:13:33;97525.67;;;14.87;34.31
39715;BME280;54166;53.172;-6.552;2023-01-01T10:16:07;97526.71;;;14.87;34.30
39715;BME280;54166;53.172;-6.552;2023-01-01T10:18:37;97531.94;;;14.47;34.32
39715;BME280;54166;53.172;-6.552;2023-01-01T10:21:14;97534.91;;;14.87;34.22
39715;BME280;54166;53.172;-6.552;2023-01-01T10:23:47;97533.82;;;14.85;34.31
39715;BME280;54166;53.172;-6.552;2023-01-01T10:26:18;97542.32;;;14.85;34.22
39715;BME280;54166;53.172;-6.552;2023-01-01T10:28:52;97540.32;;;14.45;34.06
39715;BME280;54166;53.172;-6.552;2023-01-01T10:31:29;97543.23;;;14.84;34.16
39715;BME280;54166;53.172;-6.552;2023-01-01T10:33:58;97538.21;;;14.82;34.06
39715;BME280;54166;53.172;-6.552;2023-01-01T10:36:27;97535.20;;;14.84;34.10
39715;BME280;54166;53.172;-6.552;2023-01-01T10:38:53;97530.78;;;14.87;34.08
39715;BME280;54166;53.172;-6.552;2023-01-01T10:41:21;97525.43;;;14.90;34.12
39715;BME280;54166;53.172;-6.552;2023-01-01T10:43:48;97525.56;;;14.97;34.20
39715;BME280;54166;53.172;-6.552;2023-01-01T10:46:20;97535.56;;;14.66;34.17
39715;BME280;54166;53.172;-6.552;2023-01-01T10:49:07;97545.36;;;15.17;34.04
39715;BME280;54166;53.172;-6.552;2023-01-01T10:51:37;97554.37;;;15.29;34.06
39715;BME280;54166;53.172;-6.552;2023-01-01T10:54:23;97554.13;;;15.36;33.92
39715;BME280;54166;53.172;-6.552;2023-01-01T10:56:53;97566.16;;;15.05;33.87
39715;BME280;54166;53.172;-6.552;2023-01-01T10:59:33;97570.81;;;15.47;33.22
39715;BME280;54166;53.172;-6.552;2023-01-01T11:02:20;97566.19;;;16.36;32.31
39715;BME280;54166;53.172;-6.552;2023-01-01T11:04:49;97564.72;;;16.25;32.13
39715;BME280;54166;53.172;-6.552;2023-01-01T11:07:23;97566.17;;;16.49;31.66
39715;BME280;54166;53.172;-6.552;2023-01-01T11:09:58;97570.90;;;16.94;30.91
39715;BME280;54166;53.172;-6.552;2023-01-01T11:12:29;97575.73;;;16.90;31.13
39715;BME280;54166;53.172;-6.552;2023-01-01T11:14:57;97580.42;;;16.32;31.81
39715;BME280;54166;53.172;-6.552;2023-01-01T11:17:34;97579.31;;;16.22;32.26
39715;BME280;54166;53.172;-6.552;2023-01-01T11:20:04;97578.64;;;16.15;32.60
39715;BME280;54166;53.172;-6.552;2023-01-01T11:22:37;97580.29;;;15.87;32.75
39715;BME280;54166;53.172;-6.552;2023-01-01T11:25:17;97589.39;;;15.64;32.96
39715;BME280;54166;53.172;-6.552;2023-01-01T11:27:45;97588.01;;;15.79;33.10
39715;BME280;54166;53.172;-6.552;2023-01-01T11:30:20;97591.60;;;15.33;33.14
39715;BME280;54166;53.172;-6.552;2023-01-01T11:32:50;97599.42;;;15.19;33.30
39715;BME280;54166;53.172;-6.552;2023-01-01T11:35:20;97604.55;;;15.44;33.46
39715;BME280;54166;53.172;-6.552;2023-01-01T11:37:50;97606.93;;;15.37;33.33
39715;BME280;54166;53.172;-6.552;2023-01-01T11:40:20;97610.36;;;15.30;33.44
39715;BME280;54166;53.172;-6.552;2023-01-01T11:42:52;97612.96;;;15.23;33.58
39715;BME280;54166;53.172;-6.552;2023-01-01T11:45:22;97613.28;;;15.17;33.61
39715;BME280;54166;53.172;-6.552;2023-01-01T11:47:54;97615.48;;;15.52;33.79
39715;BME280;54166;53.172;-6.552;2023-01-01T11:50:27;97619.75;;;15.47;33.71
39715;BME280;54166;53.172;-6.552;2023-01-01T11:52:57;97618.29;;;15.04;33.79
39715;BME280;54166;53.172;-6.552;2023-01-01T11:55:36;97620.94;;;15.40;33.74
39715;BME280;54166;53.172;-6.552;2023-01-01T11:58:20;97625.85;;;14.93;33.76
39715;BME280;54166;53.172;-6.552;2023-01-01T12:00:54;97629.84;;;14.85;33.81
39715;BME280;54166;53.172;-6.552;2023-01-01T12:03:26;97632.54;;;15.25;33.99
39715;BME280;54166;53.172;-6.552;2023-01-01T12:06:03;97635.11;;;14.83;33.88
39715;BME280;54166;53.172;-6.552;2023-01-01T12:08:36;97635.06;;;15.31;33.82
39715;BME280;54166;53.172;-6.552;2023-01-01T12:11:11;97632.96;;;15.46;33.72
39715;BME280;54166;53.172;-6.552;2023-01-01T12:13:46;97634.81;;;15.42;33.77
39715;BME280;54166;53.172;-6.552;2023-01-01T12:16:20;97639.12;;;15.44;33.84
39715;BME280;54166;53.172;-6.552;2023-01-01T12:18:55;97645.94;;;15.00;33.83
39715;BME280;54166;53.172;-6.552;2023-01-01T12:21:27;97650.21;;;14.94;33.82
39715;BME280;54166;53.172;-6.552;2023-01-01T12:23:56;97650.48;;;14.92;33.84
39715;BME280;54166;53.172;-6.552;2023-01-01T12:26:25;97648.64;;;15.30;33.88
39715;BME280;54166;53.172;-6.552;2023-01-01T12:29:24;97649.20;;;14.85;33.91
39715;BME280;54166;53.172;-6.552;2023-01-01T12:32:02;97647.75;;;15.17;33.98
39715;BME280;54166;53.172;-6.552;2023-01-01T12:34:34;97654.74;;;15.15;34.03
39715;BME280;54166;53.172;-6.552;2023-01-01T12:37:10;97655.87;;;15.14;34.02
39715;BME280;54166;53.172;-6.552;2023-01-01T12:40:04;97656.90;;;14.71;34.04
39715;BME280;54166;53.172;-6.552;2023-01-01T12:42:46;97653.17;;;15.05;34.14
39715;BME280;54166;53.172;-6.552;2023-01-01T12:45:31;97656.73;;;15.03;34.11
39715;BME280;54166;53.172;-6.552;2023-01-01T12:48:22;97657.50;;;15.00;34.15
39715;BME280;54166;53.172;-6.552;2023-01-01T12:50:57;97663.10;;;14.99;34.20
39715;BME280;54166;53.172;-6.552;2023-01-01T12:53:33;97660.29;;;14.98;34.28
39715;BME280;54166;53.172;-6.552;2023-01-01T12:56:13;97663.86;;;14.97;34.25
39715;BME280;54166;53.172;-6.552;2023-01-01T12:58:44;97667.73;;;14.97;34.24
39715;BME280;54166;53.172;-6.552;2023-01-01T13:01:18;97669.46;;;14.97;34.33
39715;BME280;54166;53.172;-6.552;2023-01-01T13:03:49;97676.98;;;14.97;34.41
39715;BME280;54166;53.172;-6.552;2023-01-01T13:06:21;97679.77;;;14.96;34.41
39715;BME280;54166;53.172;-6.552;2023-01-01T13:08:53;97686.13;;;14.94;34.46
39715;BME280;54166;53.172;-6.552;2023-01-01T13:11:22;97688.53;;;14.93;34.48
39715;BME280;54166;53.172;-6.552;2023-01-01T13:13:50;97688.07;;;14.52;34.48